Time;durP1;ratioP1;P1;durP2;ratioP2;P2;SDS_P1;SDS_P2;PMS_P1;PMS_P2;Temp;Humidity;BMP_temperature;BMP_pressure;BME280_temperature;BME280_humidity;BME280_pressure;Samples;Min_cycle;Max_cycle;Signal;HPM_P1;HPM_P2
2021/09/15 00:00:49;;;;;;;9.07;7.57;;;;;19.00;100570.00;;;;10548038;27;20199;-80
2021/09/15 00:05:51;;;;;;;10.27;8.23;;;;;19.00;100577.00;;;;10514853;27;20896;-80
2021/09/15 00:10:52;;;;;;;12.25;8.48;;;;;19.00;100573.00;;;;10531506;27;20200;-80
2021/09/15 00:15:53;;;;;;;12.98;8.63;;;;;19.00;100587.00;;;;10515506;27;20655;-79
2021/09/15 00:20:54;;;;;;;13.10;8.80;;;;;19.00;100569.00;;;;10549023;27;20188;-80
2021/09/15 00:25:55;;;;;;;13.38;8.48;;;;;19.00;100571.00;;;;10547420;27;20215;-80
2021/09/15 00:30:57;;;;;;;13.65;9.80;;;;;19.00;100565.00;;;;10489582;28;20211;-80
2021/09/15 00:35:58;;;;;;;12.48;9.35;;;;;19.00;100566.00;;;;10489982;28;20667;-80
2021/09/15 00:40:59;;;;;;;10.95;9.82;;;;;19.00;100567.00;;;;10507729;28;20215;-80
2021/09/15 00:46:01;;;;;;;11.23;9.82;;;;;19.00;100559.00;;;;10489216;28;20212;-80
2021/09/15 00:51:02;;;;;;;15.02;9.45;;;;;19.00;100562.00;;;;10488713;28;20189;-79
2021/09/15 00:56:04;;;;;;;11.73;10.07;;;;;19.00;100557.00;;;;10488832;28;20571;-80
2021/09/15 01:01:05;;;;;;;14.77;10.48;;;;;18.90;100544.00;;;;10473335;28;20202;-80
2021/09/15 01:06:07;;;;;;;15.25;11.02;;;;;18.90;100540.00;;;;10505261;28;20224;-80
2021/09/15 01:11:10;;;;;;;14.20;12.00;;;;;18.90;100550.00;;;;10473016;28;20288;-80
2021/09/15 01:16:21;;;;;;;13.30;10.88;;;;;18.90;100549.00;;;;10472852;28;20203;-80
2021/09/15 01:21:41;;;;;;;13.32;10.88;;;;;18.80;100547.00;;;;10490518;28;20192;-80
2021/09/15 01:27:02;;;;;;;16.70;11.65;;;;;18.80;100536.00;;;;10495184;28;20215;-79
2021/09/15 01:32:13;;;;;;;18.45;13.00;;;;;18.70;100536.00;;;;10547216;28;20188;-80
2021/09/15 01:37:15;;;;;;;16.30;13.05;;;;;18.70;100525.00;;;;10512334;28;20203;-81
2021/09/15 01:42:35;;;;;;;14.32;12.80;;;;;18.70;100527.00;;;;10511035;28;20203;-81
2021/09/15 01:47:40;;;;;;;16.42;13.32;;;;;18.60;100516.00;;;;10493287;28;20213;-81
2021/09/15 01:52:41;;;;;;;18.92;13.95;;;;;18.50;100519.00;;;;10479372;28;20192;-80
2021/09/15 01:57:49;;;;;;;13.98;12.25;;;;;18.50;100516.00;;;;10521444;28;20197;-81
2021/09/15 02:03:15;;;;;;;19.00;12.25;;;;;18.40;100496.00;;;;10499928;28;20273;-80
2021/09/15 02:08:33;;;;;;;15.32;12.80;;;;;18.40;100496.00;;;;10499939;28;20226;-80
2021/09/15 02:13:47;;;;;;;15.65;12.23;;;;;18.40;100495.00;;;;10516416;28;20288;-81
2021/09/15 02:18:48;;;;;;;15.85;13.75;;;;;18.40;100492.00;;;;10516206;28;20536;-80
2021/09/15 02:24:10;;;;;;;18.58;12.98;;;;;18.40;100500.00;;;;10501526;28;20203;-80
2021/09/15 02:29:31;;;;;;;18.90;13.35;;;;;18.40;100494.00;;;;10485110;28;20224;-80
2021/09/15 02:34:46;;;;;;;16.23;13.32;;;;;18.40;100491.00;;;;10513590;28;20196;-81
2021/09/15 02:40:03;;;;;;;16.65;13.90;;;;;18.40;100486.00;;;;10514795;28;20733;-80
2021/09/15 02:45:22;;;;;;;22.85;14.82;;;;;18.40;100493.00;;;;10531270;28;20287;-81
2021/09/15 02:50:35;;;;;;;20.75;16.08;;;;;18.40;100499.00;;;;10497291;28;20222;-81
2021/09/15 02:55:56;;;;;;;19.85;15.55;;;;;18.50;100504.00;;;;10497795;28;20256;-81
2021/09/15 03:01:15;;;;;;;18.70;14.52;;;;;18.50;100495.00;;;;10511560;28;20259;-80
2021/09/15 03:06:26;;;;;;;21.95;15.18;;;;;18.50;100492.00;;;;10494946;28;20213;-81
2021/09/15 03:11:38;;;;;;;18.83;14.80;;;;;18.50;100488.00;;;;10514560;28;20208;-81
2021/09/15 03:16:41;;;;;;;18.63;14.88;;;;;18.50;100484.00;;;;10494587;28;20191;-80
2021/09/15 03:21:44;;;;;;;17.17;14.40;;;;;18.50;100482.00;;;;10512381;28;20185;-80
2021/09/15 03:26:48;;;;;;;22.73;15.35;;;;;18.50;100485.00;;;;10513850;28;20669;-81
2021/09/15 03:31:49;;;;;;;17.63;13.52;;;;;18.50;100491.00;;;;10535041;28;20200;-81
2021/09/15 03:36:51;;;;;;;18.42;15.15;;;;;18.50;100480.00;;;;10534216;28;20826;-80
2021/09/15 03:41:54;;;;;;;18.25;14.75;;;;;18.50;100493.00;;;;10518791;28;20213;-80
2021/09/15 03:46:56;;;;;;;23.08;14.32;;;;;18.50;100496.00;;;;10489773;28;20246;-80
2021/09/15 03:51:58;;;;;;;21.58;14.88;;;;;18.60;100501.00;;;;10493569;28;20331;-80
2021/09/15 03:57:00;;;;;;;23.42;15.60;;;;;18.50;100505.00;;;;10488540;28;20228;-80
2021/09/15 04:02:02;;;;;;;19.70;14.52;;;;;18.50;100494.00;;;;10468230;28;20196;-80
2021/09/15 04:07:03;;;;;;;16.77;13.15;;;;;18.60;100500.00;;;;10449675;28;20252;-80
2021/09/15 04:12:05;;;;;;;23.05;16.08;;;;;18.60;100508.00;;;;10450228;28;20193;-80
2021/09/15 04:17:08;;;;;;;29.02;17.30;;;;;18.60;100500.00;;;;10506670;28;20204;-80
2021/09/15 04:22:16;;;;;;;19.95;14.77;;;;;18.60;100488.00;;;;10515880;28;20192;-80
2021/09/15 04:32:39;;;;;;;19.05;14.35;;;;;18.60;100489.00;;;;10532734;28;20227;-80
2021/09/15 04:37:41;;;;;;;16.17;13.82;;;;;18.70;100485.00;;;;10533280;28;20212;-83
2021/09/15 04:42:42;;;;;;;21.15;14.35;;;;;18.70;100488.00;;;;10520052;28;20196;-81
2021/09/15 04:47:46;;;;;;;19.00;13.95;;;;;18.70;100487.00;;;;10522268;27;20230;-81
2021/09/15 04:52:47;;;;;;;22.40;14.95;;;;;18.70;100498.00;;;;10518960;27;20535;-81
2021/09/15 04:57:49;;;;;;;19.20;14.88;;;;;18.70;100492.00;;;;10550093;27;20215;-81
2021/09/15 05:02:51;;;;;;;19.60;14.00;;;;;18.70;100501.00;;;;10509964;28;20208;-81
2021/09/15 05:08:05;;;;;;;23.48;14.80;;;;;18.70;100488.00;;;;10540157;28;20233;-81
2021/09/15 05:13:09;;;;;;;18.90;14.25;;;;;18.70;100480.00;;;;10511555;27;20262;-81
2021/09/15 05:18:13;;;;;;;22.30;14.13;;;;;18.60;100489.00;;;;10504010;27;20181;-81
2021/09/15 05:23:15;;;;;;;22.15;14.65;;;;;18.60;100498.00;;;;10535088;27;20196;-81
2021/09/15 05:28:18;;;;;;;20.73;15.70;;;;;18.60;100507.00;;;;10502055;27;20258;-81
2021/09/15 05:33:20;;;;;;;20.65;14.77;;;;;18.60;100511.00;;;;10484081;27;20196;-81
2021/09/15 05:38:22;;;;;;;23.23;17.20;;;;;18.60;100512.00;;;;10533821;27;20220;-81
2021/09/15 05:43:49;;;;;;;30.48;20.38;;;;;18.60;100523.00;;;;10535503;27;20201;-82
2021/09/15 05:48:52;;;;;;;42.28;27.38;;;;;18.70;100522.00;;;;10515437;27;20219;-81
2021/09/15 05:53:55;;;;;;;63.88;41.63;;;;;18.70;100535.00;;;;10498292;28;20208;-81
2021/09/15 05:58:59;;;;;;;83.57;50.05;;;;;18.80;100528.00;;;;10501985;27;20204;-81
2021/09/15 06:04:01;;;;;;;83.80;48.33;;;;;18.70;100537.00;;;;10515227;27;20196;-82
2021/09/15 06:09:25;;;;;;;83.72;46.65;;;;;18.70;100548.00;;;;10523762;27;20231;-82
2021/09/15 06:14:27;;;;;;;74.95;44.53;;;;;18.80;100555.00;;;;10526973;28;20220;-81
2021/09/15 06:19:30;;;;;;;80.03;43.50;;;;;18.80;100560.00;;;;10504611;28;20627;-81
2021/09/15 06:24:58;;;;;;;98.18;49.85;;;;;18.80;100558.00;;;;10535630;27;20203;-79
2021/09/15 06:30:04;;;;;;;95.93;52.90;;;;;18.80;100555.00;;;;10515437;27;20217;-80
2021/09/15 06:35:05;;;;;;;108.93;55.88;;;;;18.70;100559.00;;;;10508594;27;20199;-81
2021/09/15 06:40:08;;;;;;;96.18;52.95;;;;;18.70;100569.00;;;;10539792;28;20219;-81
2021/09/15 06:45:10;;;;;;;93.95;52.47;;;;;18.60;100576.00;;;;10538126;28;20205;-81
2021/09/15 06:50:13;;;;;;;99.72;53.40;;;;;18.70;100567.00;;;;10527050;28;20223;-81
2021/09/15 06:55:14;;;;;;;103.60;56.08;;;;;18.70;100569.00;;;;10515357;28;20295;-80
2021/09/15 07:00:18;;;;;;;110.32;53.78;;;;;18.80;100570.00;;;;10530818;28;20619;-80
2021/09/15 07:05:20;;;;;;;109.53;52.28;;;;;18.90;100583.00;;;;10537429;27;20701;-84
2021/09/15 07:10:21;;;;;;;114.28;57.47;;;;;18.90;100590.00;;;;10518176;28;20196;-81
2021/09/15 07:15:22;;;;;;;117.85;55.63;;;;;19.00;100589.00;;;;10541211;28;20226;-82
2021/09/15 07:20:23;;;;;;;121.40;59.25;;;;;19.30;100597.00;;;;10504491;28;20197;-82
2021/09/15 07:25:25;;;;;;;127.53;57.92;;;;;19.70;100596.00;;;;10511454;28;20263;-82
2021/09/15 07:30:26;;;;;;;107.50;56.80;;;;;20.00;100601.00;;;;10507968;28;20269;-82
2021/09/15 07:35:27;;;;;;;107.85;56.50;;;;;20.20;100608.00;;;;10506953;28;20193;-82
2021/09/15 07:40:28;;;;;;;108.07;55.10;;;;;20.30;100617.00;;;;10474369;28;20224;-82
2021/09/15 07:45:30;;;;;;;104.50;53.63;;;;;20.30;100604.00;;;;10523686;28;20200;-82
2021/09/15 07:50:31;;;;;;;100.65;54.78;;;;;20.30;100598.00;;;;10530053;27;20863;-82
2021/09/15 07:55:32;;;;;;;91.93;51.58;;;;;20.40;100606.00;;;;10516458;27;20223;-82
2021/09/15 08:00:34;;;;;;;86.65;52.50;;;;;20.40;100612.00;;;;10526906;28;20303;-82
2021/09/15 08:05:35;;;;;;;86.25;51.92;;;;;20.40;100601.00;;;;10543853;27;20196;-82
2021/09/15 08:10:36;;;;;;;92.38;53.20;;;;;20.50;100604.00;;;;10513460;28;20262;-81
2021/09/15 08:15:38;;;;;;;85.45;51.55;;;;;20.50;100595.00;;;;10531776;27;20194;-81
2021/09/15 08:20:39;;;;;;;90.20;49.97;;;;;20.50;100608.00;;;;10505172;28;20197;-81
2021/09/15 08:25:44;;;;;;;87.15;52.08;;;;;20.60;100593.00;;;;10474051;28;20197;-81
2021/09/15 08:30:45;;;;;;;88.20;50.92;;;;;20.90;100604.00;;;;10498828;28;20291;-81
2021/09/15 08:35:46;;;;;;;82.88;48.08;;;;;21.10;100627.00;;;;10505565;28;20200;-81
2021/09/15 08:40:51;;;;;;;84.10;51.25;;;;;21.40;100641.00;;;;10541620;28;20266;-81
2021/09/15 08:45:55;;;;;;;66.82;43.20;;;;;22.10;100671.00;;;;10510801;27;20200;-80
2021/09/15 08:50:57;;;;;;;51.20;37.03;;;;;21.50;100668.00;;;;10529919;27;20265;-81
2021/09/15 08:55:58;;;;;;;54.72;39.80;;;;;20.80;100644.00;;;;10531334;27;20188;-80
2021/09/15 09:01:28;;;;;;;57.58;39.72;;;;;20.60;100641.00;;;;10528634;28;20674;-81
2021/09/15 09:06:34;;;;;;;50.30;36.55;;;;;20.50;100641.00;;;;10509361;28;20836;-80
2021/09/15 09:11:36;;;;;;;50.88;37.30;;;;;20.40;100633.00;;;;10528561;27;20218;-80
2021/09/15 09:16:49;;;;;;;49.92;35.28;;;;;20.80;100643.00;;;;10526837;28;20195;-81
2021/09/15 09:21:54;;;;;;;43.53;32.78;;;;;21.00;100653.00;;;;10510930;28;20219;-80
2021/09/15 09:26:58;;;;;;;39.28;29.15;;;;;21.70;100669.00;;;;10525378;28;20322;-80
2021/09/15 09:32:10;;;;;;;36.03;28.73;;;;;22.20;100681.00;;;;10544565;27;20196;-80
2021/09/15 09:37:18;;;;;;;37.10;28.33;;;;;23.70;100684.00;;;;10527861;27;20238;-79
2021/09/15 09:42:22;;;;;;;35.97;30.10;;;;;22.90;100692.00;;;;10510888;27;20227;-78
2021/09/15 09:47:25;;;;;;;39.10;31.48;;;;;21.60;100684.00;;;;10510178;27;20219;-78
2021/09/15 09:52:27;;;;;;;37.72;32.83;;;;;20.70;100668.00;;;;10544581;27;20194;-80
2021/09/15 09:57:30;;;;;;;42.10;32.90;;;;;20.40;100662.00;;;;10544800;27;20204;-80
2021/09/15 10:02:31;;;;;;;48.08;34.78;;;;;20.50;100660.00;;;;10527580;27;20809;-79
2021/09/15 10:07:35;;;;;;;52.10;42.22;;;;;21.10;100677.00;;;;10541787;28;20270;-80
2021/09/15 10:12:37;;;;;;;57.30;44.28;;;;;21.60;100686.00;;;;10509753;28;20200;-80
2021/09/15 10:17:53;;;;;;;52.28;42.20;;;;;21.70;100668.00;;;;10525606;28;20257;-79
2021/09/15 10:22:56;;;;;;;34.20;27.80;;;;;21.90;100683.00;;;;10526339;28;20302;-79
2021/09/15 10:28:04;;;;;;;31.50;27.40;;;;;21.90;100674.00;;;;10530564;28;20228;-77
2021/09/15 10:33:05;;;;;;;26.58;23.70;;;;;22.30;100676.00;;;;10534552;27;20196;-77
2021/09/15 10:38:07;;;;;;;22.92;20.65;;;;;22.40;100674.00;;;;10549863;28;20254;-77
2021/09/15 10:43:39;;;;;;;21.02;18.80;;;;;22.80;100680.00;;;;10520423;27;20197;-78
2021/09/15 10:48:42;;;;;;;18.42;16.48;;;;;22.90;100673.00;;;;10498293;28;20577;-82
2021/09/15 10:53:43;;;;;;;19.08;16.92;;;;;23.40;100673.00;;;;10517796;28;20204;-77
2021/09/15 10:58:44;;;;;;;14.00;12.50;;;;;23.20;100684.00;;;;10532186;28;20192;-79
2021/09/15 11:03:53;;;;;;;13.10;11.82;;;;;22.90;100682.00;;;;10514125;28;20212;-79
2021/09/15 11:08:54;;;;;;;11.07;9.40;;;;;22.10;100682.00;;;;10494808;28;20209;-78
2021/09/15 11:14:09;;;;;;;8.18;7.10;;;;;22.20;100678.00;;;;10528496;28;20245;-80
2021/09/15 11:19:16;;;;;;;6.85;6.25;;;;;22.50;100676.00;;;;10527377;28;20203;-80
2021/09/15 11:24:20;;;;;;;5.05;4.20;;;;;23.20;100672.00;;;;10513102;28;20192;-78
2021/09/15 11:29:41;;;;;;;5.15;4.55;;;;;24.00;100675.00;;;;10513127;27;20273;-78
2021/09/15 11:34:48;;;;;;;5.85;3.78;;;;;24.00;100667.00;;;;10515334;28;20193;-77
2021/09/15 11:40:06;;;;;;;7.22;5.28;;;;;23.90;100677.00;;;;10507980;28;20224;-77
2021/09/15 11:45:14;;;;;;;8.25;6.88;;;;;23.60;100676.00;;;;10523044;27;20211;-78
2021/09/15 11:50:18;;;;;;;9.43;7.30;;;;;23.30;100685.00;;;;10536574;27;20240;-78
2021/09/15 11:55:20;;;;;;;12.13;11.02;;;;;22.60;100689.00;;;;10538667;27;20594;-77
2021/09/15 12:00:21;;;;;;;16.33;14.63;;;;;22.90;100682.00;;;;10506268;27;20877;-77
2021/09/15 12:05:23;;;;;;;12.95;11.82;;;;;23.70;100692.00;;;;10543838;27;20188;-76
2021/09/15 12:10:25;;;;;;;12.98;9.30;;;;;23.30;100691.00;;;;10538554;28;20221;-76
2021/09/15 12:15:27;;;;;;;10.32;6.57;;;;;23.20;100683.00;;;;10546975;27;20210;-76
2021/09/15 12:20:47;;;;;;;8.45;5.45;;;;;23.40;100679.00;;;;10467493;27;20208;-77
2021/09/15 12:25:54;;;;;;;5.72;4.72;;;;;23.50;100680.00;;;;10545675;27;20284;-77
2021/09/15 12:30:57;;;;;;;6.38;4.63;;;;;23.60;100688.00;;;;10529591;27;20246;-77
2021/09/15 12:36:09;;;;;;;4.38;3.72;;;;;23.30;100689.00;;;;10545358;27;20573;-77
2021/09/15 12:41:10;;;;;;;6.75;2.60;;;;;23.70;100691.00;;;;10525681;27;20224;-77
2021/09/15 12:46:24;;;;;;;3.97;2.45;;;;;23.70;100692.00;;;;10543108;27;20249;-77
2021/09/15 12:51:28;;;;;;;4.65;2.58;;;;;23.50;100694.00;;;;10519369;27;20231;-78
2021/09/15 12:56:36;;;;;;;5.68;2.75;;;;;23.00;100694.00;;;;10532752;27;20211;-78
2021/09/15 13:01:37;;;;;;;5.13;2.80;;;;;22.80;100697.00;;;;10502979;28;20205;-78
2021/09/15 13:06:38;;;;;;;5.82;2.00;;;;;22.80;100700.00;;;;10520613;27;20275;-78
2021/09/15 13:11:41;;;;;;;4.50;2.13;;;;;23.00;100698.00;;;;10512541;28;20197;-80
2021/09/15 13:16:42;;;;;;;3.70;1.52;;;;;23.30;100698.00;;;;10512651;28;20200;-78
2021/09/15 13:21:43;;;;;;;4.35;1.85;;;;;23.40;100696.00;;;;10532288;27;20614;-79
2021/09/15 13:26:44;;;;;;;3.47;2.00;;;;;23.50;100704.00;;;;10522545;27;20226;-77
2021/09/15 13:31:46;;;;;;;4.50;3.42;;;;;23.80;100713.00;;;;10495663;27;20289;-77
2021/09/15 13:36:52;;;;;;;3.05;2.60;;;;;23.80;100719.00;;;;10512100;27;20207;-78
2021/09/15 13:41:53;;;;;;;4.63;2.72;;;;;23.30;100721.00;;;;10517724;28;20268;-78
2021/09/15 13:46:54;;;;;;;3.78;1.50;;;;;23.00;100726.00;;;;10507244;27;20216;-77
2021/09/15 13:51:55;;;;;;;3.70;1.10;;;;;22.50;100730.00;;;;10498811;28;20340;-78
2021/09/15 13:57:15;;;;;;;4.18;1.20;;;;;22.30;100727.00;;;;10536636;27;20191;-79
2021/09/15 14:02:16;;;;;;;6.22;1.25;;;;;22.10;100722.00;;;;10511146;27;20748;-77
2021/09/15 14:07:17;;;;;;;2.72;1.30;;;;;22.40;100729.00;;;;10512547;27;20223;-78
2021/09/15 14:12:18;;;;;;;3.42;0.88;;;;;22.70;100730.00;;;;10537635;27;20219;-78
2021/09/15 14:17:20;;;;;;;3.83;0.75;;;;;22.60;100739.00;;;;10543388;27;20197;-77
2021/09/15 14:22:22;;;;;;;1.63;0.68;;;;;22.70;100736.00;;;;10548980;27;20282;-78
2021/09/15 14:27:23;;;;;;;3.92;0.85;;;;;22.60;100735.00;;;;10523124;27;20212;-78
2021/09/15 14:32:24;;;;;;;2.92;0.88;;;;;22.40;100735.00;;;;10543581;28;20256;-77
2021/09/15 14:37:25;;;;;;;4.05;0.80;;;;;22.50;100743.00;;;;10542899;27;20442;-78
2021/09/15 14:42:26;;;;;;;1.83;0.85;;;;;22.90;100741.00;;;;10568802;27;20612;-77
2021/09/15 14:47:28;;;;;;;5.60;0.95;;;;;22.70;100752.00;;;;10543075;27;20243;-77
2021/09/15 14:52:29;;;;;;;1.95;1.00;;;;;22.70;100753.00;;;;10526061;28;20558;-78
2021/09/15 14:57:30;;;;;;;3.13;0.70;;;;;22.30;100749.00;;;;10519097;28;20207;-78
2021/09/15 15:02:32;;;;;;;4.15;0.95;;;;;21.90;100754.00;;;;10523581;28;20200;-76
2021/09/15 15:07:35;;;;;;;4.10;0.80;;;;;21.70;100768.00;;;;10498204;28;20215;-77
2021/09/15 15:12:37;;;;;;;1.35;0.80;;;;;21.60;100766.00;;;;10506825;27;20207;-77
2021/09/15 15:17:39;;;;;;;2.38;1.08;;;;;21.50;100771.00;;;;10518388;27;20275;-76
2021/09/15 15:22:48;;;;;;;2.95;0.98;;;;;21.30;100780.00;;;;10526840;28;20204;-78
2021/09/15 15:27:49;;;;;;;4.38;0.95;;;;;21.20;100789.00;;;;10526213;27;20307;-79
2021/09/15 15:32:51;;;;;;;3.25;0.82;;;;;21.00;100794.00;;;;10524279;28;20212;-79
2021/09/15 15:37:52;;;;;;;2.95;0.90;;;;;20.90;100797.00;;;;10524730;27;20239;-79
2021/09/15 15:42:53;;;;;;;3.28;0.80;;;;;20.70;100807.00;;;;10512881;27;20312;-80
2021/09/15 15:47:54;;;;;;;5.25;1.10;;;;;20.50;100815.00;;;;10530475;27;20222;-79
2021/09/15 15:52:55;;;;;;;4.20;0.90;;;;;20.40;100814.00;;;;10514490;28;20597;-79
2021/09/15 15:57:57;;;;;;;3.97;1.40;;;;;20.20;100817.00;;;;10513219;27;20216;-79
2021/09/15 16:02:58;;;;;;;3.45;0.88;;;;;20.10;100820.00;;;;10503850;28;20200;-78
2021/09/15 16:07:59;;;;;;;1.75;1.05;;;;;20.00;100818.00;;;;10513914;27;20231;-77
2021/09/15 16:13:02;;;;;;;3.40;0.98;;;;;19.90;100815.00;;;;10499538;28;20922;-78
2021/09/15 16:18:03;;;;;;;4.00;1.17;;;;;19.90;100819.00;;;;10512489;28;20230;-77
2021/09/15 16:23:05;;;;;;;8.23;1.15;;;;;19.80;100828.00;;;;10522123;27;20212;-77
2021/09/15 16:28:06;;;;;;;5.47;1.30;;;;;19.80;100829.00;;;;10529538;27;20232;-77
2021/09/15 16:33:07;;;;;;;5.60;1.25;;;;;19.90;100834.00;;;;10515960;28;20280;-77
2021/09/15 16:38:08;;;;;;;3.10;1.00;;;;;19.80;100837.00;;;;10491939;28;20247;-77
2021/09/15 16:43:11;;;;;;;5.07;1.40;;;;;19.60;100822.00;;;;10572858;27;20246;-77
2021/09/15 16:48:14;;;;;;;6.10;1.13;;;;;19.50;100833.00;;;;10539080;28;20208;-76
2021/09/15 16:53:15;;;;;;;8.43;1.63;;;;;19.30;100833.00;;;;10540049;28;20220;-77
2021/09/15 16:58:16;;;;;;;4.72;1.40;;;;;19.10;100827.00;;;;10506786;28;20280;-77
2021/09/15 17:03:18;;;;;;;4.43;1.45;;;;;19.00;100843.00;;;;10503209;28;20189;-77
2021/09/15 17:08:19;;;;;;;4.40;1.60;;;;;18.80;100848.00;;;;10499952;28;20212;-77
2021/09/15 17:13:20;;;;;;;5.88;2.10;;;;;18.70;100839.00;;;;10506949;27;20232;-76
2021/09/15 17:18:21;;;;;;;5.78;1.58;;;;;18.60;100846.00;;;;10505881;28;20192;-77
2021/09/15 17:23:22;;;;;;;7.07;1.48;;;;;18.40;100856.00;;;;10522031;28;20211;-76
2021/09/15 17:28:24;;;;;;;2.45;0.93;;;;;18.20;100849.00;;;;10521940;28;20254;-78
2021/09/15 17:33:25;;;;;;;5.50;1.50;;;;;18.00;100859.00;;;;10505480;28;20233;-76
2021/09/15 17:38:27;;;;;;;3.78;1.08;;;;;17.90;100866.00;;;;10539960;28;20620;-77
2021/09/15 17:43:28;;;;;;;4.35;1.58;;;;;17.80;100868.00;;;;10538897;28;20267;-77
2021/09/15 17:48:30;;;;;;;3.83;1.27;;;;;17.70;100870.00;;;;10521243;28;20231;-77
2021/09/15 17:53:31;;;;;;;4.70;2.40;;;;;17.70;100876.00;;;;10538324;28;20207;-77
2021/09/15 17:58:32;;;;;;;4.70;1.35;;;;;17.60;100883.00;;;;10539742;27;20215;-77
2021/09/15 18:03:34;;;;;;;4.65;1.42;;;;;17.50;100886.00;;;;10480820;28;20196;-77
2021/09/15 18:08:35;;;;;;;2.95;1.27;;;;;17.50;100902.00;;;;10512990;27;20307;-77
2021/09/15 18:13:36;;;;;;;8.10;1.88;;;;;17.40;100908.00;;;;10496781;28;20201;-77
2021/09/15 18:18:38;;;;;;;4.95;1.48;;;;;17.40;100914.00;;;;10532336;28;20242;-77
2021/09/15 18:23:41;;;;;;;6.30;1.73;;;;;17.40;100925.00;;;;10480410;28;20287;-77
2021/09/15 18:28:43;;;;;;;6.93;1.60;;;;;17.40;100929.00;;;;10513895;28;20216;-77
2021/09/15 18:33:44;;;;;;;3.25;1.20;;;;;17.30;100939.00;;;;10519734;28;20616;-77
2021/09/15 18:38:45;;;;;;;5.55;1.27;;;;;17.30;100945.00;;;;10553897;28;20200;-78
2021/09/15 18:43:48;;;;;;;3.78;0.95;;;;;17.20;100950.00;;;;10512703;28;20204;-79
2021/09/15 18:48:50;;;;;;;2.88;0.98;;;;;17.20;100968.00;;;;10488352;28;20224;-78
2021/09/15 18:53:51;;;;;;;6.85;1.55;;;;;17.10;100975.00;;;;10487566;28;20200;-76
2021/09/15 18:58:52;;;;;;;3.35;1.05;;;;;17.10;100984.00;;;;10521011;28;20204;-76
2021/09/15 19:03:53;;;;;;;4.32;1.20;;;;;17.10;100992.00;;;;10578574;28;20648;-77
2021/09/15 19:08:55;;;;;;;5.93;1.20;;;;;17.10;100995.00;;;;10559696;28;20223;-76
2021/09/15 19:13:57;;;;;;;2.92;1.30;;;;;17.00;101009.00;;;;10513237;28;20239;-76
2021/09/15 19:19:00;;;;;;;4.53;1.13;;;;;17.00;101007.00;;;;10484674;28;20640;-77
2021/09/15 19:24:02;;;;;;;4.03;1.50;;;;;16.90;101015.00;;;;10469138;28;20254;-77
2021/09/15 19:29:03;;;;;;;3.90;1.90;;;;;16.90;101021.00;;;;10505508;27;20220;-76
2021/09/15 19:34:04;;;;;;;5.93;1.42;;;;;16.90;101020.00;;;;10542693;27;20192;-76
2021/09/15 19:39:05;;;;;;;5.72;1.17;;;;;16.80;101025.00;;;;10542056;27;20223;-77
2021/09/15 19:44:07;;;;;;;4.15;1.40;;;;;16.70;101030.00;;;;10503792;27;20193;-77
2021/09/15 19:49:08;;;;;;;4.63;1.30;;;;;16.60;101020.00;;;;10525728;27;20286;-77
2021/09/15 19:54:11;;;;;;;4.30;1.25;;;;;16.40;101026.00;;;;10525310;27;20248;-76
2021/09/15 19:59:13;;;;;;;7.50;2.03;;;;;16.20;101029.00;;;;10523468;28;20204;-77
2021/09/15 20:04:22;;;;;;;6.22;1.08;;;;;16.00;101034.00;;;;10568408;28;20256;-78
2021/09/15 20:09:23;;;;;;;6.93;1.30;;;;;15.90;101034.00;;;;10522908;28;20224;-78
2021/09/15 20:14:24;;;;;;;2.33;1.45;;;;;15.70;101041.00;;;;10497523;28;20205;-79
2021/09/15 20:19:26;;;;;;;5.43;1.63;;;;;15.60;101040.00;;;;10503273;28;20231;-78
2021/09/15 20:24:28;;;;;;;7.72;2.20;;;;;15.50;101034.00;;;;10470571;28;20200;-78
2021/09/15 20:29:29;;;;;;;5.90;1.30;;;;;15.40;101034.00;;;;10511175;28;20231;-78
2021/09/15 20:34:30;;;;;;;6.93;1.52;;;;;15.30;101048.00;;;;10510215;28;20200;-79
2021/09/15 20:39:32;;;;;;;7.53;1.47;;;;;15.20;101042.00;;;;10521061;28;20617;-78
2021/09/15 20:44:35;;;;;;;3.83;1.63;;;;;15.00;101049.00;;;;10503495;28;20201;-78
2021/09/15 20:49:36;;;;;;;2.30;1.43;;;;;14.90;101046.00;;;;10487212;28;20222;-78
2021/09/15 20:54:37;;;;;;;7.27;2.10;;;;;14.70;101049.00;;;;10470374;28;20197;-79
2021/09/15 20:59:38;;;;;;;4.07;1.80;;;;;14.60;101040.00;;;;10517129;28;20207;-78
2021/09/15 21:04:39;;;;;;;8.27;2.23;;;;;14.50;101046.00;;;;10525613;28;20226;-79
2021/09/15 21:09:42;;;;;;;8.17;2.13;;;;;14.40;101047.00;;;;10540213;27;20247;-78
2021/09/15 21:14:43;;;;;;;6.33;2.00;;;;;14.30;101046.00;;;;10543234;27;20184;-78
2021/09/15 21:19:44;;;;;;;8.83;2.30;;;;;14.20;101040.00;;;;10525906;27;20596;-78
2021/09/15 21:24:46;;;;;;;11.57;2.60;;;;;14.10;101032.00;;;;10509463;27;20895;-79
2021/09/15 21:29:47;;;;;;;9.77;3.37;;;;;14.00;101033.00;;;;10539979;27;20208;-78
2021/09/15 21:34:49;;;;;;;10.97;3.70;;;;;14.00;101033.00;;;;10493774;28;20211;-78
2021/09/15 21:39:50;;;;;;;8.47;2.63;;;;;14.00;101041.00;;;;10468790;28;20226;-78
2021/09/15 21:44:51;;;;;;;7.73;2.63;;;;;13.90;101050.00;;;;10468387;28;20197;-78
2021/09/15 21:49:52;;;;;;;9.37;2.60;;;;;13.80;101053.00;;;;10516553;28;20690;-78
2021/09/15 21:54:53;;;;;;;8.33;2.73;;;;;13.70;101050.00;;;;10501386;28;20668;-78
2021/09/15 21:59:56;;;;;;;6.60;2.60;;;;;13.60;101051.00;;;;10507134;28;20240;-78
2021/09/15 22:04:57;;;;;;;6.70;2.50;;;;;13.50;101053.00;;;;10500198;28;20207;-78
2021/09/15 22:09:59;;;;;;;5.93;2.43;;;;;13.50;101054.00;;;;10483018;28;20234;-78
2021/09/15 22:15:01;;;;;;;5.50;2.53;;;;;13.40;101061.00;;;;10483643;28;20196;-78
2021/09/15 22:20:03;;;;;;;6.63;2.70;;;;;13.30;101062.00;;;;10485046;28;20259;-78
2021/09/15 22:25:04;;;;;;;10.67;3.00;;;;;13.30;101069.00;;;;10523879;28;20204;-78
2021/09/15 22:30:07;;;;;;;6.13;2.20;;;;;13.30;101079.00;;;;10521588;28;20223;-78
2021/09/15 22:35:08;;;;;;;4.57;2.80;;;;;13.30;101084.00;;;;10547759;28;20199;-78
2021/09/15 22:40:11;;;;;;;6.73;2.37;;;;;13.20;101084.00;;;;10539148;28;20216;-77
2021/09/15 22:45:12;;;;;;;7.60;2.70;;;;;13.10;101079.00;;;;10530892;27;20218;-78
2021/09/15 22:50:14;;;;;;;9.27;2.93;;;;;13.00;101078.00;;;;10548242;27;20227;-79
2021/09/15 22:55:15;;;;;;;17.93;3.17;;;;;13.00;101092.00;;;;10564126;27;20200;-78
2021/09/15 23:00:17;;;;;;;6.53;2.67;;;;;13.00;101091.00;;;;10506342;28;20192;-79
2021/09/15 23:05:18;;;;;;;5.53;2.37;;;;;13.10;101085.00;;;;10505185;28;20193;-78
2021/09/15 23:10:19;;;;;;;9.57;3.53;;;;;13.10;101083.00;;;;10504927;28;20311;-78
2021/09/15 23:15:20;;;;;;;7.50;3.23;;;;;13.00;101084.00;;;;10508523;28;20231;-78
2021/09/15 23:20:22;;;;;;;6.53;2.30;;;;;13.00;101092.00;;;;10513584;28;20648;-78
2021/09/15 23:25:24;;;;;;;7.17;2.67;;;;;12.90;101104.00;;;;10515979;28;20196;-78
2021/09/15 23:30:25;;;;;;;6.10;3.27;;;;;12.80;101095.00;;;;10553915;27;20741;-78
2021/09/15 23:35:26;;;;;;;12.27;3.70;;;;;12.70;101089.00;;;;10529246;27;20200;-78
2021/09/15 23:40:27;;;;;;;8.13;4.13;;;;;12.60;101095.00;;;;10530921;27;20640;-78
2021/09/15 23:45:28;;;;;;;12.40;5.53;;;;;12.50;101104.00;;;;10528787;27;20201;-78
2021/09/15 23:50:30;;;;;;;11.37;7.20;;;;;12.50;101102.00;;;;10528884;27;20241;-78
2021/09/15 23:55:31;;;;;;;10.13;6.40;;;;;12.40;101100.00;;;;10523178;27;20207;-78
